sensor_id;sensor_type;location;lat;lon;timestamp;temperature;humidity
22069;DHT22;13887;57.196;-2.100;2023-08-01T00:01:10;15.45;86.97
22069;DHT22;13887;57.196;-2.100;2023-08-01T00:03:37;15.41;86.58
22069;DHT22;13887;57.196;-2.100;2023-08-01T00:06:04;15.41;86.64
22069;DHT22;13887;57.196;-2.100;2023-08-01T00:08:32;15.40;86.59
22069;DHT22;13887;57.196;-2.100;2023-08-01T00:10:59;15.42;86.60
22069;DHT22;13887;57.196;-2.100;2023-08-01T00:13:26;15.41;86.71
22069;DHT22;13887;57.196;-2.100;2023-08-01T00:15:53;15.44;86.61
22069;DHT22;13887;57.196;-2.100;2023-08-01T00:18:33;15.46;86.55
22069;DHT22;13887;57.196;-2.100;2023-08-01T00:21:01;15.43;86.67
22069;DHT22;13887;57.196;-2.100;2023-08-01T00:23:28;15.43;86.81
22069;DHT22;13887;57.196;-2.100;2023-08-01T00:25:55;15.42;86.93
22069;DHT22;13887;57.196;-2.100;2023-08-01T00:28:22;15.40;87.21
22069;DHT22;13887;57.196;-2.100;2023-08-01T00:30:49;15.39;87.52
22069;DHT22;13887;57.196;-2.100;2023-08-01T00:33:16;15.38;87.89
22069;DHT22;13887;57.196;-2.100;2023-08-01T00:35:44;15.42;87.77
22069;DHT22;13887;57.196;-2.100;2023-08-01T00:38:11;15.43;87.91
22069;DHT22;13887;57.196;-2.100;2023-08-01T00:40:38;15.42;88.28
22069;DHT22;13887;57.196;-2.100;2023-08-01T00:43:05;15.43;88.18
22069;DHT22;13887;57.196;-2.100;2023-08-01T00:45:32;15.46;88.16
22069;DHT22;13887;57.196;-2.100;2023-08-01T00:47:59;15.44;88.45
22069;DHT22;13887;57.196;-2.100;2023-08-01T00:50:27;15.46;88.34
22069;DHT22;13887;57.196;-2.100;2023-08-01T00:52:54;15.47;88.36
22069;DHT22;13887;57.196;-2.100;2023-08-01T00:55:22;15.45;88.58
22069;DHT22;13887;57.196;-2.100;2023-08-01T00:57:50;15.46;88.64
22069;DHT22;13887;57.196;-2.100;2023-08-01T01:00:18;15.40;89.02
22069;DHT22;13887;57.196;-2.100;2023-08-01T01:02:46;15.46;88.70
22069;DHT22;13887;57.196;-2.100;2023-08-01T01:05:13;15.44;88.80
22069;DHT22;13887;57.196;-2.100;2023-08-01T01:07:43;15.39;89.06
22069;DHT22;13887;57.196;-2.100;2023-08-01T01:10:10;15.40;89.09
22069;DHT22;13887;57.196;-2.100;2023-08-01T01:12:38;15.34;89.37
22069;DHT22;13887;57.196;-2.100;2023-08-01T01:15:06;15.41;89.24
22069;DHT22;13887;57.196;-2.100;2023-08-01T01:17:33;15.42;89.16
22069;DHT22;13887;57.196;-2.100;2023-08-01T01:20:01;15.41;89.18
22069;DHT22;13887;57.196;-2.100;2023-08-01T01:22:29;15.40;89.19
22069;DHT22;13887;57.196;-2.100;2023-08-01T01:24:57;15.42;89.06
22069;DHT22;13887;57.196;-2.100;2023-08-01T01:27:25;15.43;89.07
22069;DHT22;13887;57.196;-2.100;2023-08-01T01:29:53;15.41;89.16
22069;DHT22;13887;57.196;-2.100;2023-08-01T01:32:22;15.40;89.22
22069;DHT22;13887;57.196;-2.100;2023-08-01T01:34:49;15.41;89.08
22069;DHT22;13887;57.196;-2.100;2023-08-01T01:37:16;15.39;89.31
22069;DHT22;13887;57.196;-2.100;2023-08-01T01:39:43;15.40;89.22
22069;DHT22;13887;57.196;-2.100;2023-08-01T01:42:10;15.43;89.09
22069;DHT22;13887;57.196;-2.100;2023-08-01T01:44:39;15.38;89.42
22069;DHT22;13887;57.196;-2.100;2023-08-01T01:47:07;15.34;89.54
22069;DHT22;13887;57.196;-2.100;2023-08-01T01:49:34;15.36;89.48
22069;DHT22;13887;57.196;-2.100;2023-08-01T01:52:01;15.37;89.40
22069;DHT22;13887;57.196;-2.100;2023-08-01T01:54:28;15.34;89.28
22069;DHT22;13887;57.196;-2.100;2023-08-01T01:56:55;15.38;89.20
22069;DHT22;13887;57.196;-2.100;2023-08-01T01:59:22;15.39;89.15
22069;DHT22;13887;57.196;-2.100;2023-08-01T02:01:50;15.38;89.09
22069;DHT22;13887;57.196;-2.100;2023-08-01T02:04:17;15.41;88.89
22069;DHT22;13887;57.196;-2.100;2023-08-01T02:06:45;15.38;89.05
22069;DHT22;13887;57.196;-2.100;2023-08-01T02:09:12;15.36;89.09
22069;DHT22;13887;57.196;-2.100;2023-08-01T02:11:39;15.36;89.12
22069;DHT22;13887;57.196;-2.100;2023-08-01T02:14:06;15.33;89.16
22069;DHT22;13887;57.196;-2.100;2023-08-01T02:16:34;15.33;89.17
22069;DHT22;13887;57.196;-2.100;2023-08-01T02:19:01;15.34;89.12
22069;DHT22;13887;57.196;-2.100;2023-08-01T02:21:32;15.36;89.11
22069;DHT22;13887;57.196;-2.100;2023-08-01T02:24:00;15.36;89.02
22069;DHT22;13887;57.196;-2.100;2023-08-01T02:26:27;15.36;89.04
22069;DHT22;13887;57.196;-2.100;2023-08-01T02:28:56;15.29;89.34
22069;DHT22;13887;57.196;-2.100;2023-08-01T02:31:23;15.28;89.42
22069;DHT22;13887;57.196;-2.100;2023-08-01T02:33:50;15.29;89.35
22069;DHT22;13887;57.196;-2.100;2023-08-01T02:36:18;15.30;89.27
22069;DHT22;13887;57.196;-2.100;2023-08-01T02:38:45;15.30;89.21
22069;DHT22;13887;57.196;-2.100;2023-08-01T02:41:12;15.33;88.98
22069;DHT22;13887;57.196;-2.100;2023-08-01T02:43:39;15.30;89.19
22069;DHT22;13887;57.196;-2.100;2023-08-01T02:46:07;15.31;89.08
22069;DHT22;13887;57.196;-2.100;2023-08-01T02:48:34;15.25;89.41
22069;DHT22;13887;57.196;-2.100;2023-08-01T02:51:02;15.25;89.32
22069;DHT22;13887;57.196;-2.100;2023-08-01T02:53:30;15.25;89.24
22069;DHT22;13887;57.196;-2.100;2023-08-01T02:55:57;15.26;89.16
22069;DHT22;13887;57.196;-2.100;2023-08-01T02:58:24;15.23;89.18
22069;DHT22;13887;57.196;-2.100;2023-08-01T03:00:51;15.18;89.29
22069;DHT22;13887;57.196;-2.100;2023-08-01T03:03:18;15.19;89.21
22069;DHT22;13887;57.196;-2.100;2023-08-01T03:05:45;15.18;89.18
22069;DHT22;13887;57.196;-2.100;2023-08-01T03:08:12;15.22;88.96
22069;DHT22;13887;57.196;-2.100;2023-08-01T03:10:40;15.24;88.78
22069;DHT22;13887;57.196;-2.100;2023-08-01T03:13:07;15.21;88.84
22069;DHT22;13887;57.196;-2.100;2023-08-01T03:15:34;15.22;88.70
22069;DHT22;13887;57.196;-2.100;2023-08-01T03:18:01;15.18;88.73
22069;DHT22;13887;57.196;-2.100;2023-08-01T03:20:28;15.18;88.67
22069;DHT22;13887;57.196;-2.100;2023-08-01T03:22:55;15.18;88.64
22069;DHT22;13887;57.196;-2.100;2023-08-01T03:25:23;15.23;88.41
22069;DHT22;13887;57.196;-2.100;2023-08-01T03:27:50;15.17;88.54
22069;DHT22;13887;57.196;-2.100;2023-08-01T03:30:17;15.19;88.44
22069;DHT22;13887;57.196;-2.100;2023-08-01T03:32:44;15.17;88.51
22069;DHT22;13887;57.196;-2.100;2023-08-01T03:35:11;15.18;88.44
22069;DHT22;13887;57.196;-2.100;2023-08-01T03:37:41;15.17;88.44
22069;DHT22;13887;57.196;-2.100;2023-08-01T03:40:08;15.14;88.48
22069;DHT22;13887;57.196;-2.100;2023-08-01T03:42:37;15.16;88.34
22069;DHT22;13887;57.196;-2.100;2023-08-01T03:45:05;15.17;88.33
22069;DHT22;13887;57.196;-2.100;2023-08-01T03:47:33;15.19;88.19
22069;DHT22;13887;57.196;-2.100;2023-08-01T03:50:00;15.19;88.18
22069;DHT22;13887;57.196;-2.100;2023-08-01T03:52:28;15.21;88.06
22069;DHT22;13887;57.196;-2.100;2023-08-01T03:54:55;15.18;88.16
22069;DHT22;13887;57.196;-2.100;2023-08-01T03:57:23;15.19;88.12
22069;DHT22;13887;57.196;-2.100;2023-08-01T03:59:50;15.22;88.03
22069;DHT22;13887;57.196;-2.100;2023-08-01T04:02:17;15.18;88.04
22069;DHT22;13887;57.196;-2.100;2023-08-01T04:04:45;15.17;88.16
22069;DHT22;13887;57.196;-2.100;2023-08-01T04:07:12;15.17;88.05
22069;DHT22;13887;57.196;-2.100;2023-08-01T04:09:40;15.18;87.96
22069;DHT22;13887;57.196;-2.100;2023-08-01T04:12:08;15.17;87.96
22069;DHT22;13887;57.196;-2.100;2023-08-01T04:14:35;15.13;88.30
22069;DHT22;13887;57.196;-2.100;2023-08-01T04:17:02;15.11;88.44
22069;DHT22;13887;57.196;-2.100;2023-08-01T04:19:30;15.11;88.44
22069;DHT22;13887;57.196;-2.100;2023-08-01T04:21:57;15.12;88.37
22069;DHT22;13887;57.196;-2.100;2023-08-01T04:24:25;15.10;88.47
22069;DHT22;13887;57.196;-2.100;2023-08-01T04:26:54;15.11;88.44
22069;DHT22;13887;57.196;-2.100;2023-08-01T04:29:21;15.11;88.45
22069;DHT22;13887;57.196;-2.100;2023-08-01T04:31:48;15.10;88.49
22069;DHT22;13887;57.196;-2.100;2023-08-01T04:34:15;15.10;88.47
22069;DHT22;13887;57.196;-2.100;2023-08-01T04:36:42;15.09;88.51
22069;DHT22;13887;57.196;-2.100;2023-08-01T04:39:10;15.08;88.57
22069;DHT22;13887;57.196;-2.100;2023-08-01T04:41:37;15.11;88.45
22069;DHT22;13887;57.196;-2.100;2023-08-01T04:44:04;15.09;88.54
22069;DHT22;13887;57.196;-2.100;2023-08-01T04:46:31;15.10;88.53
22069;DHT22;13887;57.196;-2.100;2023-08-01T04:48:58;15.14;88.31
22069;DHT22;13887;57.196;-2.100;2023-08-01T04:51:25;15.14;88.32
22069;DHT22;13887;57.196;-2.100;2023-08-01T04:53:53;15.13;88.35
22069;DHT22;13887;57.196;-2.100;2023-08-01T04:56:20;15.16;88.22
22069;DHT22;13887;57.196;-2.100;2023-08-01T04:58:47;15.12;88.57
22069;DHT22;13887;57.196;-2.100;2023-08-01T05:01:14;15.13;88.44
22069;DHT22;13887;57.196;-2.100;2023-08-01T05:03:41;15.12;88.47
22069;DHT22;13887;57.196;-2.100;2023-08-01T05:06:08;15.11;88.60
22069;DHT22;13887;57.196;-2.100;2023-08-01T05:08:35;15.13;88.43
22069;DHT22;13887;57.196;-2.100;2023-08-01T05:11:03;15.13;88.57
22069;DHT22;13887;57.196;-2.100;2023-08-01T05:13:30;15.14;88.51
22069;DHT22;13887;57.196;-2.100;2023-08-01T05:15:57;15.12;88.57
22069;DHT22;13887;57.196;-2.100;2023-08-01T05:18:24;15.15;88.51
22069;DHT22;13887;57.196;-2.100;2023-08-01T05:20:51;15.14;88.64
22069;DHT22;13887;57.196;-2.100;2023-08-01T05:23:18;15.14;88.49
22069;DHT22;13887;57.196;-2.100;2023-08-01T05:25:46;15.17;88.37
22069;DHT22;13887;57.196;-2.100;2023-08-01T05:28:13;15.16;88.41
22069;DHT22;13887;57.196;-2.100;2023-08-01T05:30:40;15.15;88.47
22069;DHT22;13887;57.196;-2.100;2023-08-01T05:33:07;15.13;88.60
22069;DHT22;13887;57.196;-2.100;2023-08-01T05:35:34;15.14;88.53
22069;DHT22;13887;57.196;-2.100;2023-08-01T05:38:01;15.13;88.54
22069;DHT22;13887;57.196;-2.100;2023-08-01T05:40:28;15.15;88.44
22069;DHT22;13887;57.196;-2.100;2023-08-01T05:42:55;15.16;88.48
22069;DHT22;13887;57.196;-2.100;2023-08-01T05:45:23;15.14;88.54
22069;DHT22;13887;57.196;-2.100;2023-08-01T05:47:50;15.13;88.47
22069;DHT22;13887;57.196;-2.100;2023-08-01T05:50:17;15.14;88.48
22069;DHT22;13887;57.196;-2.100;2023-08-01T05:52:44;15.15;88.52
22069;DHT22;13887;57.196;-2.100;2023-08-01T05:55:11;15.15;88.47
22069;DHT22;13887;57.196;-2.100;2023-08-01T05:57:38;15.19;88.31
22069;DHT22;13887;57.196;-2.100;2023-08-01T06:00:06;15.19;88.22
22069;DHT22;13887;57.196;-2.100;2023-08-01T06:02:39;15.18;88.35
22069;DHT22;13887;57.196;-2.100;2023-08-01T06:05:07;15.16;88.35
22069;DHT22;13887;57.196;-2.100;2023-08-01T06:07:34;15.19;88.24
22069;DHT22;13887;57.196;-2.100;2023-08-01T06:10:01;15.16;88.27
22069;DHT22;13887;57.196;-2.100;2023-08-01T06:12:28;15.16;88.35
22069;DHT22;13887;57.196;-2.100;2023-08-01T06:14:56;15.15;88.32
22069;DHT22;13887;57.196;-2.100;2023-08-01T06:17:23;15.16;88.21
22069;DHT22;13887;57.196;-2.100;2023-08-01T06:19:50;15.15;88.19
22069;DHT22;13887;57.196;-2.100;2023-08-01T06:22:18;15.18;88.09
22069;DHT22;13887;57.196;-2.100;2023-08-01T06:24:46;15.19;88.12
22069;DHT22;13887;57.196;-2.100;2023-08-01T06:27:13;15.21;88.01
22069;DHT22;13887;57.196;-2.100;2023-08-01T06:29:42;15.23;88.09
22069;DHT22;13887;57.196;-2.100;2023-08-01T06:32:09;15.23;87.95
22069;DHT22;13887;57.196;-2.100;2023-08-01T06:34:36;15.21;88.08
22069;DHT22;13887;57.196;-2.100;2023-08-01T06:37:03;15.21;88.15
22069;DHT22;13887;57.196;-2.100;2023-08-01T06:39:30;15.22;88.12
22069;DHT22;13887;57.196;-2.100;2023-08-01T06:41:58;15.22;88.21
22069;DHT22;13887;57.196;-2.100;2023-08-01T06:44:25;15.19;88.42
22069;DHT22;13887;57.196;-2.100;2023-08-01T06:46:52;15.22;88.25
22069;DHT22;13887;57.196;-2.100;2023-08-01T06:49:19;15.22;88.26
22069;DHT22;13887;57.196;-2.100;2023-08-01T06:51:46;15.22;88.36
22069;DHT22;13887;57.196;-2.100;2023-08-01T06:54:13;15.22;88.28
22069;DHT22;13887;57.196;-2.100;2023-08-01T06:56:41;15.21;88.29
22069;DHT22;13887;57.196;-2.100;2023-08-01T06:59:14;15.24;88.11
22069;DHT22;13887;57.196;-2.100;2023-08-01T07:01:42;15.25;88.25
22069;DHT22;13887;57.196;-2.100;2023-08-01T07:04:11;15.27;87.91
22069;DHT22;13887;57.196;-2.100;2023-08-01T07:06:38;15.31;87.79
22069;DHT22;13887;57.196;-2.100;2023-08-01T07:09:06;15.39;87.35
22069;DHT22;13887;57.196;-2.100;2023-08-01T07:11:33;15.37;87.55
22069;DHT22;13887;57.196;-2.100;2023-08-01T07:14:01;15.38;87.54
22069;DHT22;13887;57.196;-2.100;2023-08-01T07:16:27;15.40;87.41
22069;DHT22;13887;57.196;-2.100;2023-08-01T07:18:55;15.38;87.78
22069;DHT22;13887;57.196;-2.100;2023-08-01T07:21:22;15.40;87.51
22069;DHT22;13887;57.196;-2.100;2023-08-01T07:23:49;15.40;87.69
22069;DHT22;13887;57.196;-2.100;2023-08-01T07:26:16;15.40;87.49
22069;DHT22;13887;57.196;-2.100;2023-08-01T07:28:43;15.38;87.24
22069;DHT22;13887;57.196;-2.100;2023-08-01T07:31:11;15.40;87.09
22069;DHT22;13887;57.196;-2.100;2023-08-01T07:33:38;15.38;87.26
22069;DHT22;13887;57.196;-2.100;2023-08-01T07:36:05;15.39;87.14
22069;DHT22;13887;57.196;-2.100;2023-08-01T07:38:32;15.40;87.26
22069;DHT22;13887;57.196;-2.100;2023-08-01T07:41:03;15.44;87.08
22069;DHT22;13887;57.196;-2.100;2023-08-01T07:43:31;15.46;86.99
22069;DHT22;13887;57.196;-2.100;2023-08-01T07:45:59;15.47;86.93
22069;DHT22;13887;57.196;-2.100;2023-08-01T07:48:26;15.49;86.58
22069;DHT22;13887;57.196;-2.100;2023-08-01T07:50:53;15.49;86.36
22069;DHT22;13887;57.196;-2.100;2023-08-01T07:53:21;15.49;86.43
22069;DHT22;13887;57.196;-2.100;2023-08-01T07:55:48;15.49;86.06
22069;DHT22;13887;57.196;-2.100;2023-08-01T07:58:16;15.49;85.80
22069;DHT22;13887;57.196;-2.100;2023-08-01T08:00:43;15.52;85.84
22069;DHT22;13887;57.196;-2.100;2023-08-01T08:03:10;15.51;85.71
22069;DHT22;13887;57.196;-2.100;2023-08-01T08:05:38;15.53;85.55
22069;DHT22;13887;57.196;-2.100;2023-08-01T08:08:06;15.56;85.62
22069;DHT22;13887;57.196;-2.100;2023-08-01T08:10:33;15.58;85.66
22069;DHT22;13887;57.196;-2.100;2023-08-01T08:13:00;15.59;85.36
22069;DHT22;13887;57.196;-2.100;2023-08-01T08:15:27;15.61;85.12
22069;DHT22;13887;57.196;-2.100;2023-08-01T08:17:56;15.62;84.97
22069;DHT22;13887;57.196;-2.100;2023-08-01T08:20:23;15.66;84.71
22069;DHT22;13887;57.196;-2.100;2023-08-01T08:22:51;15.66;84.51
22069;DHT22;13887;57.196;-2.100;2023-08-01T08:25:18;15.66;84.45
22069;DHT22;13887;57.196;-2.100;2023-08-01T08:27:45;15.63;84.64
22069;DHT22;13887;57.196;-2.100;2023-08-01T08:30:12;15.62;84.30
22069;DHT22;13887;57.196;-2.100;2023-08-01T08:32:39;15.65;84.20
22069;DHT22;13887;57.196;-2.100;2023-08-01T08:35:06;15.65;84.27
22069;DHT22;13887;57.196;-2.100;2023-08-01T08:37:34;15.66;84.26
22069;DHT22;13887;57.196;-2.100;2023-08-01T08:40:01;15.66;84.21
22069;DHT22;13887;57.196;-2.100;2023-08-01T08:42:28;15.68;83.74
22069;DHT22;13887;57.196;-2.100;2023-08-01T08:44:55;15.69;83.70
22069;DHT22;13887;57.196;-2.100;2023-08-01T08:47:25;15.67;83.51
22069;DHT22;13887;57.196;-2.100;2023-08-01T08:49:55;15.66;83.28
22069;DHT22;13887;57.196;-2.100;2023-08-01T08:52:25;15.63;83.09
22069;DHT22;13887;57.196;-2.100;2023-08-01T08:54:52;15.63;82.41
22069;DHT22;13887;57.196;-2.100;2023-08-01T08:57:20;15.65;82.21
22069;DHT22;13887;57.196;-2.100;2023-08-01T08:59:49;15.66;82.13
22069;DHT22;13887;57.196;-2.100;2023-08-01T09:02:16;15.68;82.46
22069;DHT22;13887;57.196;-2.100;2023-08-01T09:04:44;15.68;82.81
22069;DHT22;13887;57.196;-2.100;2023-08-01T09:07:13;15.67;83.05
22069;DHT22;13887;57.196;-2.100;2023-08-01T09:09:42;15.66;82.90
22069;DHT22;13887;57.196;-2.100;2023-08-01T09:12:09;15.69;82.62
22069;DHT22;13887;57.196;-2.100;2023-08-01T09:14:36;15.71;82.64
22069;DHT22;13887;57.196;-2.100;2023-08-01T09:17:08;15.73;82.43
22069;DHT22;13887;57.196;-2.100;2023-08-01T09:19:35;15.74;82.25
22069;DHT22;13887;57.196;-2.100;2023-08-01T09:22:12;15.76;82.11
22069;DHT22;13887;57.196;-2.100;2023-08-01T09:24:51;15.78;82.01
22069;DHT22;13887;57.196;-2.100;2023-08-01T09:27:20;15.77;82.00
22069;DHT22;13887;57.196;-2.100;2023-08-01T09:29:47;15.75;81.55
22069;DHT22;13887;57.196;-2.100;2023-08-01T09:32:14;15.76;81.33
22069;DHT22;13887;57.196;-2.100;2023-08-01T09:34:42;15.75;81.35
22069;DHT22;13887;57.196;-2.100;2023-08-01T09:37:10;15.71;80.99
22069;DHT22;13887;57.196;-2.100;2023-08-01T09:39:37;15.72;80.97
22069;DHT22;13887;57.196;-2.100;2023-08-01T09:42:04;15.71;80.56
22069;DHT22;13887;57.196;-2.100;2023-08-01T09:44:34;15.68;80.32
22069;DHT22;13887;57.196;-2.100;2023-08-01T09:47:05;15.70;79.88
22069;DHT22;13887;57.196;-2.100;2023-08-01T09:49:35;15.71;79.59
22069;DHT22;13887;57.196;-2.100;2023-08-01T09:52:03;15.73;79.46
22069;DHT22;13887;57.196;-2.100;2023-08-01T09:54:31;15.74;79.49
22069;DHT22;13887;57.196;-2.100;2023-08-01T09:56:58;15.73;80.28
22069;DHT22;13887;57.196;-2.100;2023-08-01T09:59:26;15.73;80.62
22069;DHT22;13887;57.196;-2.100;2023-08-01T10:01:54;15.74;80.80
22069;DHT22;13887;57.196;-2.100;2023-08-01T10:04:29;15.77;80.90
22069;DHT22;13887;57.196;-2.100;2023-08-01T10:07:06;15.77;81.01
22069;DHT22;13887;57.196;-2.100;2023-08-01T10:09:34;15.75;80.72
22069;DHT22;13887;57.196;-2.100;2023-08-01T10:12:05;15.76;80.27
22069;DHT22;13887;57.196;-2.100;2023-08-01T10:14:32;15.75;80.14
22069;DHT22;13887;57.196;-2.100;2023-08-01T10:17:02;15.75;80.04
22069;DHT22;13887;57.196;-2.100;2023-08-01T10:19:31;15.78;79.99
22069;DHT22;13887;57.196;-2.100;2023-08-01T10:22:00;15.77;80.01
22069;DHT22;13887;57.196;-2.100;2023-08-01T10:24:28;15.76;79.88
22069;DHT22;13887;57.196;-2.100;2023-08-01T10:26:56;15.81;79.78
22069;DHT22;13887;57.196;-2.100;2023-08-01T10:29:34;15.83;79.43
22069;DHT22;13887;57.196;-2.100;2023-08-01T10:32:02;15.88;79.34
22069;DHT22;13887;57.196;-2.100;2023-08-01T10:34:30;15.90;79.31
22069;DHT22;13887;57.196;-2.100;2023-08-01T10:36:58;15.88;79.63
22069;DHT22;13887;57.196;-2.100;2023-08-01T10:39:26;15.89;79.56
22069;DHT22;13887;57.196;-2.100;2023-08-01T10:42:01;15.92;79.48
22069;DHT22;13887;57.196;-2.100;2023-08-01T10:44:29;15.93;79.15
22069;DHT22;13887;57.196;-2.100;2023-08-01T10:47:05;15.93;79.10
22069;DHT22;13887;57.196;-2.100;2023-08-01T10:49:38;15.93;78.81
22069;DHT22;13887;57.196;-2.100;2023-08-01T10:54:44;15.91;78.39
22069;DHT22;13887;57.196;-2.100;2023-08-01T10:57:18;15.89;78.20
22069;DHT22;13887;57.196;-2.100;2023-08-01T10:59:45;15.90;77.67
22069;DHT22;13887;57.196;-2.100;2023-08-01T11:02:20;15.90;77.21
22069;DHT22;13887;57.196;-2.100;2023-08-01T11:05:00;15.90;77.12
22069;DHT22;13887;57.196;-2.100;2023-08-01T11:07:27;15.93;76.77
22069;DHT22;13887;57.196;-2.100;2023-08-01T11:12:30;15.91;77.16
22069;DHT22;13887;57.196;-2.100;2023-08-01T11:15:01;15.91;76.87
22069;DHT22;13887;57.196;-2.100;2023-08-01T11:17:28;15.91;77.47
22069;DHT22;13887;57.196;-2.100;2023-08-01T11:20:04;15.89;77.25
22069;DHT22;13887;57.196;-2.100;2023-08-01T11:22:31;15.86;77.54
22069;DHT22;13887;57.196;-2.100;2023-08-01T11:24:59;15.82;77.23
22069;DHT22;13887;57.196;-2.100;2023-08-01T11:27:27;15.83;77.08
22069;DHT22;13887;57.196;-2.100;2023-08-01T11:29:55;15.83;77.18
22069;DHT22;13887;57.196;-2.100;2023-08-01T11:32:32;15.85;77.11
22069;DHT22;13887;57.196;-2.100;2023-08-01T11:35:01;15.87;77.17
22069;DHT22;13887;57.196;-2.100;2023-08-01T11:37:30;15.88;77.21
22069;DHT22;13887;57.196;-2.100;2023-08-01T11:39:58;15.90;77.15
22069;DHT22;13887;57.196;-2.100;2023-08-01T11:42:30;15.91;77.17
22069;DHT22;13887;57.196;-2.100;2023-08-01T11:45:10;15.95;76.59
22069;DHT22;13887;57.196;-2.100;2023-08-01T11:47:45;15.97;76.46
22069;DHT22;13887;57.196;-2.100;2023-08-01T11:50:14;16.00;76.62
22069;DHT22;13887;57.196;-2.100;2023-08-01T11:52:46;15.97;76.57
22069;DHT22;13887;57.196;-2.100;2023-08-01T11:55:22;15.97;76.60
22069;DHT22;13887;57.196;-2.100;2023-08-01T11:57:56;15.95;76.51
22069;DHT22;13887;57.196;-2.100;2023-08-01T12:00:26;15.96;76.66
22069;DHT22;13887;57.196;-2.100;2023-08-01T12:03:04;15.93;76.91
22069;DHT22;13887;57.196;-2.100;2023-08-01T12:05:33;15.92;76.29
22069;DHT22;13887;57.196;-2.100;2023-08-01T12:08:18;15.95;76.28
22069;DHT22;13887;57.196;-2.100;2023-08-01T12:10:46;15.95;76.49
22069;DHT22;13887;57.196;-2.100;2023-08-01T12:13:23;15.98;76.20
22069;DHT22;13887;57.196;-2.100;2023-08-01T12:15:55;15.97;76.63
22069;DHT22;13887;57.196;-2.100;2023-08-01T12:18:28;15.98;76.19
22069;DHT22;13887;57.196;-2.100;2023-08-01T12:20:59;15.99;76.08
22069;DHT22;13887;57.196;-2.100;2023-08-01T12:23:26;16.01;76.65
22069;DHT22;13887;57.196;-2.100;2023-08-01T12:25:53;16.01;76.34
22069;DHT22;13887;57.196;-2.100;2023-08-01T12:28:20;16.01;76.54
22069;DHT22;13887;57.196;-2.100;2023-08-01T12:30:47;16.01;76.73
22069;DHT22;13887;57.196;-2.100;2023-08-01T12:33:15;16.01;75.38
22069;DHT22;13887;57.196;-2.100;2023-08-01T12:35:42;16.03;75.73
22069;DHT22;13887;57.196;-2.100;2023-08-01T12:38:09;16.03;76.30
22069;DHT22;13887;57.196;-2.100;2023-08-01T12:40:36;16.02;76.05
22069;DHT22;13887;57.196;-2.100;2023-08-01T12:43:04;16.04;76.14
22069;DHT22;13887;57.196;-2.100;2023-08-01T12:45:32;16.05;76.24
22069;DHT22;13887;57.196;-2.100;2023-08-01T12:48:00;16.05;76.31
22069;DHT22;13887;57.196;-2.100;2023-08-01T12:50:27;16.04;76.31
22069;DHT22;13887;57.196;-2.100;2023-08-01T12:52:54;16.04;76.12
22069;DHT22;13887;57.196;-2.100;2023-08-01T12:55:21;16.06;76.01
22069;DHT22;13887;57.196;-2.100;2023-08-01T12:57:48;16.04;75.71
22069;DHT22;13887;57.196;-2.100;2023-08-01T13:00:16;16.06;75.25
22069;DHT22;13887;57.196;-2.100;2023-08-01T13:02:43;16.10;75.68
22069;DHT22;13887;57.196;-2.100;2023-08-01T13:05:11;16.10;74.83
22069;DHT22;13887;57.196;-2.100;2023-08-01T13:07:38;16.08;75.35
22069;DHT22;13887;57.196;-2.100;2023-08-01T13:10:05;16.08;74.38
22069;DHT22;13887;57.196;-2.100;2023-08-01T13:12:33;16.12;74.91
22069;DHT22;13887;57.196;-2.100;2023-08-01T13:15:00;16.10;74.78
22069;DHT22;13887;57.196;-2.100;2023-08-01T13:17:42;16.11;74.15
22069;DHT22;13887;57.196;-2.100;2023-08-01T13:20:09;16.13;74.49
22069;DHT22;13887;57.196;-2.100;2023-08-01T13:22:37;16.13;74.07
22069;DHT22;13887;57.196;-2.100;2023-08-01T13:25:04;16.16;74.09
22069;DHT22;13887;57.196;-2.100;2023-08-01T13:27:34;16.18;73.83
22069;DHT22;13887;57.196;-2.100;2023-08-01T13:30:03;16.20;74.15
22069;DHT22;13887;57.196;-2.100;2023-08-01T13:32:30;16.22;74.81
22069;DHT22;13887;57.196;-2.100;2023-08-01T13:34:57;16.22;74.64
22069;DHT22;13887;57.196;-2.100;2023-08-01T13:37:24;16.21;74.17
22069;DHT22;13887;57.196;-2.100;2023-08-01T13:39:51;16.20;74.56
22069;DHT22;13887;57.196;-2.100;2023-08-01T13:42:18;16.20;73.93
22069;DHT22;13887;57.196;-2.100;2023-08-01T13:44:45;16.22;73.48
22069;DHT22;13887;57.196;-2.100;2023-08-01T13:47:13;16.24;73.35
22069;DHT22;13887;57.196;-2.100;2023-08-01T13:49:40;16.24;72.32
22069;DHT22;13887;57.196;-2.100;2023-08-01T13:52:07;16.26;73.44
22069;DHT22;13887;57.196;-2.100;2023-08-01T13:54:34;16.27;73.38
22069;DHT22;13887;57.196;-2.100;2023-08-01T13:57:01;16.28;73.73
22069;DHT22;13887;57.196;-2.100;2023-08-01T13:59:28;16.28;73.08
22069;DHT22;13887;57.196;-2.100;2023-08-01T14:01:56;16.31;73.34
22069;DHT22;13887;57.196;-2.100;2023-08-01T14:04:23;16.29;73.93
22069;DHT22;13887;57.196;-2.100;2023-08-01T14:06:51;16.27;73.43
22069;DHT22;13887;57.196;-2.100;2023-08-01T14:09:18;16.28;74.29
22069;DHT22;13887;57.196;-2.100;2023-08-01T14:11:45;16.29;74.47
22069;DHT22;13887;57.196;-2.100;2023-08-01T14:14:12;16.30;74.21
22069;DHT22;13887;57.196;-2.100;2023-08-01T14:16:42;16.31;74.67
22069;DHT22;13887;57.196;-2.100;2023-08-01T14:19:10;16.32;74.78
22069;DHT22;13887;57.196;-2.100;2023-08-01T14:21:37;16.34;74.93
22069;DHT22;13887;57.196;-2.100;2023-08-01T14:24:04;16.33;75.00
22069;DHT22;13887;57.196;-2.100;2023-08-01T14:26:32;16.37;75.21
22069;DHT22;13887;57.196;-2.100;2023-08-01T14:28:59;16.39;75.55
22069;DHT22;13887;57.196;-2.100;2023-08-01T14:31:26;16.36;75.81
22069;DHT22;13887;57.196;-2.100;2023-08-01T14:33:53;16.36;75.90
22069;DHT22;13887;57.196;-2.100;2023-08-01T14:36:20;16.36;76.02
22069;DHT22;13887;57.196;-2.100;2023-08-01T14:38:47;16.40;75.85
22069;DHT22;13887;57.196;-2.100;2023-08-01T14:41:24;16.39;76.28
22069;DHT22;13887;57.196;-2.100;2023-08-01T14:44:11;16.40;76.50
22069;DHT22;13887;57.196;-2.100;2023-08-01T14:46:38;16.43;76.41
22069;DHT22;13887;57.196;-2.100;2023-08-01T14:49:05;16.42;76.15
22069;DHT22;13887;57.196;-2.100;2023-08-01T14:51:33;16.43;76.66
22069;DHT22;13887;57.196;-2.100;2023-08-01T14:54:00;16.41;76.37
22069;DHT22;13887;57.196;-2.100;2023-08-01T14:56:29;16.43;76.60
22069;DHT22;13887;57.196;-2.100;2023-08-01T14:58:56;16.42;76.62
22069;DHT22;13887;57.196;-2.100;2023-08-01T15:01:24;16.44;76.64
22069;DHT22;13887;57.196;-2.100;2023-08-01T15:03:51;16.48;76.64
22069;DHT22;13887;57.196;-2.100;2023-08-01T15:06:18;16.48;76.78
22069;DHT22;13887;57.196;-2.100;2023-08-01T15:08:45;16.47;76.53
22069;DHT22;13887;57.196;-2.100;2023-08-01T15:11:13;16.49;76.18
22069;DHT22;13887;57.196;-2.100;2023-08-01T15:13:40;16.51;75.97
22069;DHT22;13887;57.196;-2.100;2023-08-01T15:16:10;16.50;76.02
22069;DHT22;13887;57.196;-2.100;2023-08-01T15:18:41;16.47;76.16
22069;DHT22;13887;57.196;-2.100;2023-08-01T15:21:09;16.46;76.23
22069;DHT22;13887;57.196;-2.100;2023-08-01T15:23:36;16.48;75.87
22069;DHT22;13887;57.196;-2.100;2023-08-01T15:26:03;16.52;75.86